sensor_id;sensor_type;location;lat;lon;timestamp;temperature;humidity
13928;DHT22;7036;50.834;4.718;2023-07-02T00:01:06;25.10;71.50
13928;DHT22;7036;50.834;4.718;2023-07-02T00:03:33;25.00;68.90
13928;DHT22;7036;50.834;4.718;2023-07-02T00:06:00;25.00;68.30
13928;DHT22;7036;50.834;4.718;2023-07-02T00:08:27;25.00;70.30
13928;DHT22;7036;50.834;4.718;2023-07-02T00:10:54;25.00;71.30
13928;DHT22;7036;50.834;4.718;2023-07-02T00:13:21;25.00;67.60
13928;DHT22;7036;50.834;4.718;2023-07-02T00:15:48;25.00;70.70
13928;DHT22;7036;50.834;4.718;2023-07-02T00:18:15;25.00;70.50
13928;DHT22;7036;50.834;4.718;2023-07-02T00:20:46;25.00;64.60
13928;DHT22;7036;50.834;4.718;2023-07-02T00:23:12;24.90;64.50
13928;DHT22;7036;50.834;4.718;2023-07-02T00:25:39;25.00;64.20
13928;DHT22;7036;50.834;4.718;2023-07-02T00:28:06;25.00;64.10
13928;DHT22;7036;50.834;4.718;2023-07-02T00:30:33;25.00;63.40
13928;DHT22;7036;50.834;4.718;2023-07-02T00:33:00;24.90;64.00
13928;DHT22;7036;50.834;4.718;2023-07-02T00:35:27;24.90;64.30
13928;DHT22;7036;50.834;4.718;2023-07-02T00:37:54;24.90;65.00
13928;DHT22;7036;50.834;4.718;2023-07-02T00:40:21;24.90;65.20
13928;DHT22;7036;50.834;4.718;2023-07-02T00:42:48;24.90;65.30
13928;DHT22;7036;50.834;4.718;2023-07-02T00:45:15;24.90;65.20
13928;DHT22;7036;50.834;4.718;2023-07-02T00:47:42;24.90;66.00
13928;DHT22;7036;50.834;4.718;2023-07-02T00:50:09;24.90;66.00
13928;DHT22;7036;50.834;4.718;2023-07-02T00:52:36;24.90;66.00
13928;DHT22;7036;50.834;4.718;2023-07-02T00:55:03;24.90;65.80
13928;DHT22;7036;50.834;4.718;2023-07-02T00:57:30;24.90;65.70
13928;DHT22;7036;50.834;4.718;2023-07-02T00:59:58;24.90;65.70
13928;DHT22;7036;50.834;4.718;2023-07-02T01:02:24;24.90;65.80
13928;DHT22;7036;50.834;4.718;2023-07-02T01:04:51;24.80;65.90
13928;DHT22;7036;50.834;4.718;2023-07-02T01:07:18;24.90;66.00
13928;DHT22;7036;50.834;4.718;2023-07-02T01:09:45;24.90;66.30
13928;DHT22;7036;50.834;4.718;2023-07-02T01:12:12;24.80;66.90
13928;DHT22;7036;50.834;4.718;2023-07-02T01:14:42;24.90;73.40
13928;DHT22;7036;50.834;4.718;2023-07-02T01:17:09;24.90;71.90
13928;DHT22;7036;50.834;4.718;2023-07-02T01:19:43;24.90;70.40
13928;DHT22;7036;50.834;4.718;2023-07-02T01:22:09;24.90;70.30
13928;DHT22;7036;50.834;4.718;2023-07-02T01:24:36;24.90;71.80
13928;DHT22;7036;50.834;4.718;2023-07-02T01:27:02;24.90;72.00
13928;DHT22;7036;50.834;4.718;2023-07-02T01:29:29;24.80;68.90
13928;DHT22;7036;50.834;4.718;2023-07-02T01:31:56;24.80;71.20
13928;DHT22;7036;50.834;4.718;2023-07-02T01:34:23;24.80;69.90
13928;DHT22;7036;50.834;4.718;2023-07-02T01:36:50;24.80;70.60
13928;DHT22;7036;50.834;4.718;2023-07-02T01:39:17;24.80;68.80
13928;DHT22;7036;50.834;4.718;2023-07-02T01:41:54;24.80;71.30
13928;DHT22;7036;50.834;4.718;2023-07-02T01:44:21;24.80;68.80
13928;DHT22;7036;50.834;4.718;2023-07-02T01:46:48;24.80;71.70
13928;DHT22;7036;50.834;4.718;2023-07-02T01:49:20;24.80;68.70
13928;DHT22;7036;50.834;4.718;2023-07-02T01:51:51;24.80;70.30
13928;DHT22;7036;50.834;4.718;2023-07-02T01:54:18;24.80;68.70
13928;DHT22;7036;50.834;4.718;2023-07-02T01:56:45;24.80;64.40
13928;DHT22;7036;50.834;4.718;2023-07-02T01:59:12;24.80;62.00
13928;DHT22;7036;50.834;4.718;2023-07-02T02:01:39;24.80;61.90
13928;DHT22;7036;50.834;4.718;2023-07-02T02:04:10;24.80;61.80
13928;DHT22;7036;50.834;4.718;2023-07-02T02:06:36;24.80;62.00
13928;DHT22;7036;50.834;4.718;2023-07-02T02:09:03;24.80;61.90
13928;DHT22;7036;50.834;4.718;2023-07-02T02:11:32;24.80;61.90
13928;DHT22;7036;50.834;4.718;2023-07-02T02:13:59;24.80;62.00
13928;DHT22;7036;50.834;4.718;2023-07-02T02:16:26;24.80;62.20
13928;DHT22;7036;50.834;4.718;2023-07-02T02:18:53;24.80;62.60
13928;DHT22;7036;50.834;4.718;2023-07-02T02:21:20;24.70;64.80
13928;DHT22;7036;50.834;4.718;2023-07-02T02:23:47;24.70;65.10
13928;DHT22;7036;50.834;4.718;2023-07-02T02:26:14;24.70;65.30
13928;DHT22;7036;50.834;4.718;2023-07-02T02:28:41;24.70;65.90
13928;DHT22;7036;50.834;4.718;2023-07-02T02:31:07;24.70;66.00
13928;DHT22;7036;50.834;4.718;2023-07-02T02:33:34;24.70;67.30
13928;DHT22;7036;50.834;4.718;2023-07-02T02:36:02;24.60;71.50
13928;DHT22;7036;50.834;4.718;2023-07-02T02:38:28;24.70;63.90
13928;DHT22;7036;50.834;4.718;2023-07-02T02:40:55;24.70;63.30
13928;DHT22;7036;50.834;4.718;2023-07-02T02:43:22;24.70;63.30
13928;DHT22;7036;50.834;4.718;2023-07-02T02:45:50;24.70;70.00
13928;DHT22;7036;50.834;4.718;2023-07-02T02:48:16;24.70;69.50
13928;DHT22;7036;50.834;4.718;2023-07-02T02:50:43;24.70;69.70
13928;DHT22;7036;50.834;4.718;2023-07-02T02:53:10;24.70;68.90
13928;DHT22;7036;50.834;4.718;2023-07-02T02:55:37;24.70;68.70
13928;DHT22;7036;50.834;4.718;2023-07-02T02:58:04;24.70;69.20
13928;DHT22;7036;50.834;4.718;2023-07-02T03:00:31;24.70;69.60
13928;DHT22;7036;50.834;4.718;2023-07-02T03:02:58;24.70;70.00
13928;DHT22;7036;50.834;4.718;2023-07-02T03:05:25;24.70;70.50
13928;DHT22;7036;50.834;4.718;2023-07-02T03:07:51;24.70;70.10
13928;DHT22;7036;50.834;4.718;2023-07-02T03:10:18;24.60;70.30
13928;DHT22;7036;50.834;4.718;2023-07-02T03:12:46;24.70;70.70
13928;DHT22;7036;50.834;4.718;2023-07-02T03:15:12;24.70;70.60
13928;DHT22;7036;50.834;4.718;2023-07-02T03:17:39;24.70;71.20
13928;DHT22;7036;50.834;4.718;2023-07-02T03:20:06;24.60;71.00
13928;DHT22;7036;50.834;4.718;2023-07-02T03:22:36;24.70;71.00
13928;DHT22;7036;50.834;4.718;2023-07-02T03:25:03;24.70;71.10
13928;DHT22;7036;50.834;4.718;2023-07-02T03:27:30;24.60;71.00
13928;DHT22;7036;50.834;4.718;2023-07-02T03:29:57;24.70;70.80
13928;DHT22;7036;50.834;4.718;2023-07-02T03:32:23;24.60;70.90
13928;DHT22;7036;50.834;4.718;2023-07-02T03:34:50;24.60;71.50
13928;DHT22;7036;50.834;4.718;2023-07-02T03:37:18;24.60;71.50
13928;DHT22;7036;50.834;4.718;2023-07-02T03:39:44;24.60;72.50
13928;DHT22;7036;50.834;4.718;2023-07-02T03:42:11;24.60;72.20
13928;DHT22;7036;50.834;4.718;2023-07-02T03:44:38;24.60;71.30
13928;DHT22;7036;50.834;4.718;2023-07-02T03:47:05;24.60;70.70
13928;DHT22;7036;50.834;4.718;2023-07-02T03:49:32;24.60;71.00
13928;DHT22;7036;50.834;4.718;2023-07-02T03:51:59;24.60;71.50
13928;DHT22;7036;50.834;4.718;2023-07-02T03:54:26;24.60;71.60
13928;DHT22;7036;50.834;4.718;2023-07-02T03:56:53;24.60;70.90
13928;DHT22;7036;50.834;4.718;2023-07-02T03:59:20;24.60;72.10
13928;DHT22;7036;50.834;4.718;2023-07-02T04:01:47;24.60;71.70
13928;DHT22;7036;50.834;4.718;2023-07-02T04:04:14;24.60;71.90
13928;DHT22;7036;50.834;4.718;2023-07-02T04:06:41;24.60;74.50
13928;DHT22;7036;50.834;4.718;2023-07-02T04:09:09;24.60;69.90
13928;DHT22;7036;50.834;4.718;2023-07-02T04:11:35;24.60;63.20
13928;DHT22;7036;50.834;4.718;2023-07-02T04:14:04;24.60;62.10
13928;DHT22;7036;50.834;4.718;2023-07-02T04:16:31;24.50;62.50
13928;DHT22;7036;50.834;4.718;2023-07-02T04:18:58;24.50;62.60
13928;DHT22;7036;50.834;4.718;2023-07-02T04:21:25;24.50;62.70
13928;DHT22;7036;50.834;4.718;2023-07-02T04:23:52;24.50;62.90
13928;DHT22;7036;50.834;4.718;2023-07-02T04:26:20;24.50;64.40
13928;DHT22;7036;50.834;4.718;2023-07-02T04:28:46;24.60;74.80
13928;DHT22;7036;50.834;4.718;2023-07-02T04:31:13;24.60;69.00
13928;DHT22;7036;50.834;4.718;2023-07-02T04:33:40;24.50;68.00
13928;DHT22;7036;50.834;4.718;2023-07-02T04:36:08;24.50;69.20
13928;DHT22;7036;50.834;4.718;2023-07-02T04:38:35;24.50;71.60
13928;DHT22;7036;50.834;4.718;2023-07-02T04:41:02;24.60;72.60
13928;DHT22;7036;50.834;4.718;2023-07-02T04:43:29;24.50;65.00
13928;DHT22;7036;50.834;4.718;2023-07-02T04:45:56;24.50;63.20
13928;DHT22;7036;50.834;4.718;2023-07-02T04:48:23;24.50;63.10
13928;DHT22;7036;50.834;4.718;2023-07-02T04:50:50;24.50;62.60
13928;DHT22;7036;50.834;4.718;2023-07-02T04:53:17;24.50;62.50
13928;DHT22;7036;50.834;4.718;2023-07-02T04:55:45;24.60;63.00
13928;DHT22;7036;50.834;4.718;2023-07-02T04:58:11;24.60;63.00
13928;DHT22;7036;50.834;4.718;2023-07-02T05:00:39;24.60;63.30
13928;DHT22;7036;50.834;4.718;2023-07-02T05:03:06;24.50;63.20
13928;DHT22;7036;50.834;4.718;2023-07-02T05:05:33;24.60;63.30
13928;DHT22;7036;50.834;4.718;2023-07-02T05:08:00;24.60;63.40
13928;DHT22;7036;50.834;4.718;2023-07-02T05:10:27;24.60;63.60
13928;DHT22;7036;50.834;4.718;2023-07-02T05:12:54;24.60;63.60
13928;DHT22;7036;50.834;4.718;2023-07-02T05:15:21;24.60;63.60
13928;DHT22;7036;50.834;4.718;2023-07-02T05:17:49;24.60;63.70
13928;DHT22;7036;50.834;4.718;2023-07-02T05:20:15;24.60;63.90
13928;DHT22;7036;50.834;4.718;2023-07-02T05:22:44;24.60;63.90
13928;DHT22;7036;50.834;4.718;2023-07-02T05:25:11;24.50;64.10
13928;DHT22;7036;50.834;4.718;2023-07-02T05:27:38;24.50;65.40
13928;DHT22;7036;50.834;4.718;2023-07-02T05:30:06;24.60;64.80
13928;DHT22;7036;50.834;4.718;2023-07-02T05:32:33;24.60;64.80
13928;DHT22;7036;50.834;4.718;2023-07-02T05:35:01;24.60;65.20
13928;DHT22;7036;50.834;4.718;2023-07-02T05:37:28;24.60;65.00
13928;DHT22;7036;50.834;4.718;2023-07-02T05:39:55;24.60;65.10
13928;DHT22;7036;50.834;4.718;2023-07-02T05:42:22;24.60;65.40
13928;DHT22;7036;50.834;4.718;2023-07-02T05:44:49;24.60;65.60
13928;DHT22;7036;50.834;4.718;2023-07-02T05:47:16;24.60;65.90
13928;DHT22;7036;50.834;4.718;2023-07-02T05:49:43;24.60;66.30
13928;DHT22;7036;50.834;4.718;2023-07-02T05:52:11;24.60;66.30
13928;DHT22;7036;50.834;4.718;2023-07-02T05:54:41;24.60;66.50
13928;DHT22;7036;50.834;4.718;2023-07-02T05:57:07;24.60;66.90
13928;DHT22;7036;50.834;4.718;2023-07-02T05:59:35;24.60;67.00
13928;DHT22;7036;50.834;4.718;2023-07-02T06:02:04;24.60;67.20
13928;DHT22;7036;50.834;4.718;2023-07-02T06:04:31;24.60;67.20
13928;DHT22;7036;50.834;4.718;2023-07-02T06:06:57;24.60;67.40
13928;DHT22;7036;50.834;4.718;2023-07-02T06:09:25;24.60;68.00
13928;DHT22;7036;50.834;4.718;2023-07-02T06:11:53;25.20;82.40
13928;DHT22;7036;50.834;4.718;2023-07-02T06:14:20;24.70;70.50
13928;DHT22;7036;50.834;4.718;2023-07-02T06:16:47;24.60;75.20
13928;DHT22;7036;50.834;4.718;2023-07-02T06:19:14;24.60;73.10
13928;DHT22;7036;50.834;4.718;2023-07-02T06:21:41;24.60;73.00
13928;DHT22;7036;50.834;4.718;2023-07-02T06:24:08;24.60;72.60
13928;DHT22;7036;50.834;4.718;2023-07-02T06:26:36;24.60;71.20
13928;DHT22;7036;50.834;4.718;2023-07-02T06:29:03;24.60;71.30
13928;DHT22;7036;50.834;4.718;2023-07-02T06:31:29;24.60;71.10
13928;DHT22;7036;50.834;4.718;2023-07-02T06:33:57;24.60;71.20
13928;DHT22;7036;50.834;4.718;2023-07-02T06:36:24;24.60;70.60
13928;DHT22;7036;50.834;4.718;2023-07-02T06:38:52;24.70;70.20
13928;DHT22;7036;50.834;4.718;2023-07-02T06:41:18;24.60;70.20
13928;DHT22;7036;50.834;4.718;2023-07-02T06:43:46;24.70;71.20
13928;DHT22;7036;50.834;4.718;2023-07-02T06:46:13;24.70;74.60
13928;DHT22;7036;50.834;4.718;2023-07-02T06:48:40;24.70;75.10
13928;DHT22;7036;50.834;4.718;2023-07-02T06:51:07;24.70;71.10
13928;DHT22;7036;50.834;4.718;2023-07-02T06:53:35;24.70;71.50
13928;DHT22;7036;50.834;4.718;2023-07-02T06:56:02;24.70;76.30
13928;DHT22;7036;50.834;4.718;2023-07-02T06:58:30;24.70;76.70
13928;DHT22;7036;50.834;4.718;2023-07-02T07:00:56;24.70;75.10
13928;DHT22;7036;50.834;4.718;2023-07-02T07:03:24;24.70;75.20
13928;DHT22;7036;50.834;4.718;2023-07-02T07:05:51;24.70;75.00
13928;DHT22;7036;50.834;4.718;2023-07-02T07:08:18;24.70;75.30
13928;DHT22;7036;50.834;4.718;2023-07-02T07:10:45;24.70;75.40
13928;DHT22;7036;50.834;4.718;2023-07-02T07:13:13;24.70;76.50
13928;DHT22;7036;50.834;4.718;2023-07-02T07:15:40;24.70;76.50
13928;DHT22;7036;50.834;4.718;2023-07-02T07:18:08;24.70;74.70
13928;DHT22;7036;50.834;4.718;2023-07-02T07:20:34;24.70;75.30
13928;DHT22;7036;50.834;4.718;2023-07-02T07:23:04;24.80;74.90
13928;DHT22;7036;50.834;4.718;2023-07-02T07:25:31;24.70;75.30
13928;DHT22;7036;50.834;4.718;2023-07-02T07:27:59;24.70;75.50
13928;DHT22;7036;50.834;4.718;2023-07-02T07:30:28;24.70;74.70
13928;DHT22;7036;50.834;4.718;2023-07-02T07:32:52;24.70;75.90
13928;DHT22;7036;50.834;4.718;2023-07-02T07:35:22;24.70;75.80
13928;DHT22;7036;50.834;4.718;2023-07-02T07:37:46;24.70;75.60
13928;DHT22;7036;50.834;4.718;2023-07-02T07:40:13;24.70;75.90
13928;DHT22;7036;50.834;4.718;2023-07-02T07:42:40;24.80;75.20
13928;DHT22;7036;50.834;4.718;2023-07-02T07:45:07;24.80;74.40
13928;DHT22;7036;50.834;4.718;2023-07-02T07:47:34;24.80;74.70
13928;DHT22;7036;50.834;4.718;2023-07-02T07:50:02;24.80;74.50
13928;DHT22;7036;50.834;4.718;2023-07-02T07:52:29;24.80;75.00
13928;DHT22;7036;50.834;4.718;2023-07-02T07:54:57;24.80;76.40
13928;DHT22;7036;50.834;4.718;2023-07-02T07:57:23;24.80;73.90
13928;DHT22;7036;50.834;4.718;2023-07-02T07:59:50;24.80;73.80
13928;DHT22;7036;50.834;4.718;2023-07-02T08:02:17;24.80;73.60
13928;DHT22;7036;50.834;4.718;2023-07-02T08:04:44;24.80;73.70
13928;DHT22;7036;50.834;4.718;2023-07-02T08:07:11;24.80;75.80
13928;DHT22;7036;50.834;4.718;2023-07-02T08:09:38;24.80;76.20
13928;DHT22;7036;50.834;4.718;2023-07-02T08:12:05;24.90;74.60
13928;DHT22;7036;50.834;4.718;2023-07-02T08:14:33;24.90;75.60
13928;DHT22;7036;50.834;4.718;2023-07-02T08:17:00;24.90;76.20
13928;DHT22;7036;50.834;4.718;2023-07-02T08:19:27;24.90;63.80
13928;DHT22;7036;50.834;4.718;2023-07-02T08:21:54;24.90;64.20
13928;DHT22;7036;50.834;4.718;2023-07-02T08:24:21;24.90;64.00
13928;DHT22;7036;50.834;4.718;2023-07-02T08:26:48;24.90;64.00
13928;DHT22;7036;50.834;4.718;2023-07-02T08:29:15;24.90;64.00
13928;DHT22;7036;50.834;4.718;2023-07-02T08:31:43;24.90;64.10
13928;DHT22;7036;50.834;4.718;2023-07-02T08:34:10;24.90;64.10
13928;DHT22;7036;50.834;4.718;2023-07-02T08:36:37;24.90;64.20
13928;DHT22;7036;50.834;4.718;2023-07-02T08:39:04;24.90;64.30
13928;DHT22;7036;50.834;4.718;2023-07-02T08:41:41;24.90;64.10
13928;DHT22;7036;50.834;4.718;2023-07-02T08:43:59;24.90;64.30
13928;DHT22;7036;50.834;4.718;2023-07-02T08:46:25;24.90;64.70
13928;DHT22;7036;50.834;4.718;2023-07-02T08:48:52;24.90;64.40
13928;DHT22;7036;50.834;4.718;2023-07-02T08:51:19;25.00;64.50
13928;DHT22;7036;50.834;4.718;2023-07-02T08:53:47;25.00;64.30
13928;DHT22;7036;50.834;4.718;2023-07-02T08:56:13;25.00;64.30
13928;DHT22;7036;50.834;4.718;2023-07-02T08:58:41;25.00;64.50
13928;DHT22;7036;50.834;4.718;2023-07-02T09:01:09;25.00;64.80
13928;DHT22;7036;50.834;4.718;2023-07-02T09:03:35;25.00;65.10
13928;DHT22;7036;50.834;4.718;2023-07-02T09:06:03;25.00;69.90
13928;DHT22;7036;50.834;4.718;2023-07-02T09:08:29;25.00;77.30
13928;DHT22;7036;50.834;4.718;2023-07-02T09:11:15;25.00;74.40
13928;DHT22;7036;50.834;4.718;2023-07-02T09:13:51;25.00;75.00
13928;DHT22;7036;50.834;4.718;2023-07-02T09:16:26;25.00;72.70
13928;DHT22;7036;50.834;4.718;2023-07-02T09:18:56;25.00;71.60
13928;DHT22;7036;50.834;4.718;2023-07-02T09:21:25;24.90;75.30
13928;DHT22;7036;50.834;4.718;2023-07-02T09:23:49;25.00;75.50
13928;DHT22;7036;50.834;4.718;2023-07-02T09:26:21;25.00;63.40
13928;DHT22;7036;50.834;4.718;2023-07-02T09:28:47;25.00;61.30
13928;DHT22;7036;50.834;4.718;2023-07-02T09:31:14;25.00;61.60
13928;DHT22;7036;50.834;4.718;2023-07-02T09:33:41;25.00;61.50
13928;DHT22;7036;50.834;4.718;2023-07-02T09:36:08;25.00;61.90
13928;DHT22;7036;50.834;4.718;2023-07-02T09:38:35;25.00;61.60
13928;DHT22;7036;50.834;4.718;2023-07-02T09:41:02;25.00;61.80
13928;DHT22;7036;50.834;4.718;2023-07-02T09:43:30;25.00;62.60
13928;DHT22;7036;50.834;4.718;2023-07-02T09:45:57;25.00;61.90
13928;DHT22;7036;50.834;4.718;2023-07-02T09:48:24;25.00;62.20
13928;DHT22;7036;50.834;4.718;2023-07-02T09:50:51;25.00;61.90
13928;DHT22;7036;50.834;4.718;2023-07-02T09:53:18;25.00;61.80
13928;DHT22;7036;50.834;4.718;2023-07-02T09:55:45;25.00;61.60
13928;DHT22;7036;50.834;4.718;2023-07-02T09:58:11;25.00;61.90
13928;DHT22;7036;50.834;4.718;2023-07-02T10:00:39;25.00;61.60
13928;DHT22;7036;50.834;4.718;2023-07-02T10:03:06;25.00;61.50
13928;DHT22;7036;50.834;4.718;2023-07-02T10:05:33;25.00;61.80
13928;DHT22;7036;50.834;4.718;2023-07-02T10:08:12;25.00;62.00
13928;DHT22;7036;50.834;4.718;2023-07-02T10:10:41;25.00;61.80
13928;DHT22;7036;50.834;4.718;2023-07-02T10:13:08;25.00;61.70
13928;DHT22;7036;50.834;4.718;2023-07-02T10:15:36;25.00;61.30
13928;DHT22;7036;50.834;4.718;2023-07-02T10:18:05;25.00;65.50
13928;DHT22;7036;50.834;4.718;2023-07-02T10:20:39;25.00;64.90
13928;DHT22;7036;50.834;4.718;2023-07-02T10:23:06;25.00;66.30
13928;DHT22;7036;50.834;4.718;2023-07-02T10:25:32;25.00;66.80
13928;DHT22;7036;50.834;4.718;2023-07-02T10:28:00;25.10;65.80
13928;DHT22;7036;50.834;4.718;2023-07-02T10:30:37;25.00;53.40
13928;DHT22;7036;50.834;4.718;2023-07-02T10:33:15;25.10;54.10
13928;DHT22;7036;50.834;4.718;2023-07-02T10:35:42;25.10;54.00
13928;DHT22;7036;50.834;4.718;2023-07-02T10:38:13;25.00;53.20
13928;DHT22;7036;50.834;4.718;2023-07-02T10:40:35;25.00;53.30
13928;DHT22;7036;50.834;4.718;2023-07-02T10:43:02;25.00;53.30
13928;DHT22;7036;50.834;4.718;2023-07-02T10:45:32;25.00;53.30
13928;DHT22;7036;50.834;4.718;2023-07-02T10:47:59;25.00;53.20
13928;DHT22;7036;50.834;4.718;2023-07-02T10:50:26;25.00;53.10
13928;DHT22;7036;50.834;4.718;2023-07-02T10:52:53;25.00;53.00
13928;DHT22;7036;50.834;4.718;2023-07-02T10:55:23;25.00;53.10
13928;DHT22;7036;50.834;4.718;2023-07-02T10:57:50;25.00;53.00
13928;DHT22;7036;50.834;4.718;2023-07-02T11:00:16;25.00;53.10
13928;DHT22;7036;50.834;4.718;2023-07-02T11:02:44;25.00;53.00
13928;DHT22;7036;50.834;4.718;2023-07-02T11:05:11;25.10;53.00
13928;DHT22;7036;50.834;4.718;2023-07-02T11:07:41;25.10;53.00
13928;DHT22;7036;50.834;4.718;2023-07-02T11:10:08;25.00;52.90
13928;DHT22;7036;50.834;4.718;2023-07-02T11:12:35;25.10;52.80
13928;DHT22;7036;50.834;4.718;2023-07-02T11:15:08;25.10;52.70
13928;DHT22;7036;50.834;4.718;2023-07-02T11:17:34;25.10;52.60
13928;DHT22;7036;50.834;4.718;2023-07-02T11:20:01;25.10;52.50
13928;DHT22;7036;50.834;4.718;2023-07-02T11:22:32;25.10;52.50
13928;DHT22;7036;50.834;4.718;2023-07-02T11:25:08;25.10;52.40
13928;DHT22;7036;50.834;4.718;2023-07-02T11:27:25;25.10;52.40
13928;DHT22;7036;50.834;4.718;2023-07-02T11:29:58;25.10;52.20
13928;DHT22;7036;50.834;4.718;2023-07-02T11:32:20;25.10;52.20
13928;DHT22;7036;50.834;4.718;2023-07-02T11:34:52;25.10;52.20
13928;DHT22;7036;50.834;4.718;2023-07-02T11:37:14;25.20;52.10
13928;DHT22;7036;50.834;4.718;2023-07-02T11:39:42;25.10;52.00
13928;DHT22;7036;50.834;4.718;2023-07-02T11:42:08;25.20;52.10
13928;DHT22;7036;50.834;4.718;2023-07-02T11:44:35;25.10;52.30
13928;DHT22;7036;50.834;4.718;2023-07-02T11:47:02;25.20;52.50
13928;DHT22;7036;50.834;4.718;2023-07-02T11:49:29;25.20;52.50
13928;DHT22;7036;50.834;4.718;2023-07-02T11:51:56;25.20;52.50
13928;DHT22;7036;50.834;4.718;2023-07-02T11:54:23;25.20;52.60
13928;DHT22;7036;50.834;4.718;2023-07-02T11:56:49;25.20;52.60
13928;DHT22;7036;50.834;4.718;2023-07-02T11:59:16;25.20;52.70
13928;DHT22;7036;50.834;4.718;2023-07-02T12:01:43;25.20;52.70
13928;DHT22;7036;50.834;4.718;2023-07-02T12:04:10;25.20;52.80
13928;DHT22;7036;50.834;4.718;2023-07-02T12:06:38;25.30;53.20
13928;DHT22;7036;50.834;4.718;2023-07-02T12:09:05;25.20;53.40
13928;DHT22;7036;50.834;4.718;2023-07-02T12:11:34;25.30;53.10
13928;DHT22;7036;50.834;4.718;2023-07-02T12:14:01;25.20;52.80
13928;DHT22;7036;50.834;4.718;2023-07-02T12:16:28;25.20;52.70
13928;DHT22;7036;50.834;4.718;2023-07-02T12:18:55;25.30;52.70
13928;DHT22;7036;50.834;4.718;2023-07-02T12:21:22;25.30;52.30
13928;DHT22;7036;50.834;4.718;2023-07-02T12:23:51;25.30;52.50
13928;DHT22;7036;50.834;4.718;2023-07-02T12:26:18;25.20;52.20
13928;DHT22;7036;50.834;4.718;2023-07-02T12:28:45;25.20;52.00
13928;DHT22;7036;50.834;4.718;2023-07-02T12:31:12;25.20;52.00
13928;DHT22;7036;50.834;4.718;2023-07-02T12:33:39;25.20;51.90
13928;DHT22;7036;50.834;4.718;2023-07-02T12:36:06;25.20;51.80
13928;DHT22;7036;50.834;4.718;2023-07-02T12:38:33;25.20;52.20
13928;DHT22;7036;50.834;4.718;2023-07-02T12:41:01;25.20;51.50
13928;DHT22;7036;50.834;4.718;2023-07-02T12:43:27;25.30;51.70
13928;DHT22;7036;50.834;4.718;2023-07-02T12:45:54;25.30;51.30
13928;DHT22;7036;50.834;4.718;2023-07-02T12:48:21;25.20;51.10
13928;DHT22;7036;50.834;4.718;2023-07-02T12:50:57;25.30;51.20
13928;DHT22;7036;50.834;4.718;2023-07-02T12:53:24;25.20;51.00
13928;DHT22;7036;50.834;4.718;2023-07-02T12:55:51;25.20;51.00
13928;DHT22;7036;50.834;4.718;2023-07-02T12:58:18;25.20;50.70
13928;DHT22;7036;50.834;4.718;2023-07-02T13:00:45;25.20;50.60
13928;DHT22;7036;50.834;4.718;2023-07-02T13:03:12;25.20;50.40
13928;DHT22;7036;50.834;4.718;2023-07-02T13:05:38;25.20;50.50
13928;DHT22;7036;50.834;4.718;2023-07-02T13:08:05;25.30;50.60
13928;DHT22;7036;50.834;4.718;2023-07-02T13:10:33;25.20;50.70
13928;DHT22;7036;50.834;4.718;2023-07-02T13:13:00;25.20;50.90
13928;DHT22;7036;50.834;4.718;2023-07-02T13:15:26;25.30;50.90
13928;DHT22;7036;50.834;4.718;2023-07-02T13:17:53;25.30;51.00
13928;DHT22;7036;50.834;4.718;2023-07-02T13:20:20;25.30;50.90
13928;DHT22;7036;50.834;4.718;2023-07-02T13:22:47;25.20;50.80
13928;DHT22;7036;50.834;4.718;2023-07-02T13:25:14;25.20;50.80
13928;DHT22;7036;50.834;4.718;2023-07-02T13:27:42;25.30;50.90
13928;DHT22;7036;50.834;4.718;2023-07-02T13:30:09;25.20;50.80
13928;DHT22;7036;50.834;4.718;2023-07-02T13:32:36;25.20;50.80
13928;DHT22;7036;50.834;4.718;2023-07-02T13:35:03;25.20;50.60
13928;DHT22;7036;50.834;4.718;2023-07-02T13:37:32;25.20;50.80
13928;DHT22;7036;50.834;4.718;2023-07-02T13:39:58;25.20;50.60
13928;DHT22;7036;50.834;4.718;2023-07-02T13:42:25;25.20;50.50
13928;DHT22;7036;50.834;4.718;2023-07-02T13:44:52;25.30;50.60
13928;DHT22;7036;50.834;4.718;2023-07-02T13:47:19;25.30;50.60
13928;DHT22;7036;50.834;4.718;2023-07-02T13:49:46;25.30;50.60
13928;DHT22;7036;50.834;4.718;2023-07-02T13:52:13;25.30;50.60
13928;DHT22;7036;50.834;4.718;2023-07-02T13:54:40;25.30;50.60
13928;DHT22;7036;50.834;4.718;2023-07-02T13:57:07;25.30;50.60
13928;DHT22;7036;50.834;4.718;2023-07-02T13:59:34;25.30;50.60
13928;DHT22;7036;50.834;4.718;2023-07-02T14:02:01;25.30;50.60
13928;DHT22;7036;50.834;4.718;2023-07-02T14:04:28;25.30;50.60
13928;DHT22;7036;50.834;4.718;2023-07-02T14:06:55;25.30;50.60
13928;DHT22;7036;50.834;4.718;2023-07-02T14:09:21;25.30;50.60
13928;DHT22;7036;50.834;4.718;2023-07-02T14:11:48;25.30;50.50
13928;DHT22;7036;50.834;4.718;2023-07-02T14:14:15;25.30;50.40
13928;DHT22;7036;50.834;4.718;2023-07-02T14:16:42;25.30;50.40
13928;DHT22;7036;50.834;4.718;2023-07-02T14:19:09;25.30;50.30
13928;DHT22;7036;50.834;4.718;2023-07-02T14:21:36;25.30;50.40
13928;DHT22;7036;50.834;4.718;2023-07-02T14:24:03;25.30;50.30
13928;DHT22;7036;50.834;4.718;2023-07-02T14:26:30;25.30;50.90
13928;DHT22;7036;50.834;4.718;2023-07-02T14:28:58;25.30;50.40
13928;DHT22;7036;50.834;4.718;2023-07-02T14:31:25;25.30;50.40
13928;DHT22;7036;50.834;4.718;2023-07-02T14:33:52;25.30;50.30
13928;DHT22;7036;50.834;4.718;2023-07-02T14:36:19;25.30;50.30
13928;DHT22;7036;50.834;4.718;2023-07-02T14:38:46;25.30;50.30
13928;DHT22;7036;50.834;4.718;2023-07-02T14:41:13;25.30;50.20
13928;DHT22;7036;50.834;4.718;2023-07-02T14:43:40;25.40;50.20
13928;DHT22;7036;50.834;4.718;2023-07-02T14:46:07;25.40;50.20
13928;DHT22;7036;50.834;4.718;2023-07-02T14:48:34;25.30;50.20
13928;DHT22;7036;50.834;4.718;2023-07-02T14:51:01;25.40;50.20
13928;DHT22;7036;50.834;4.718;2023-07-02T14:53:28;25.40;50.20
13928;DHT22;7036;50.834;4.718;2023-07-02T14:55:56;25.30;50.20
13928;DHT22;7036;50.834;4.718;2023-07-02T14:58:23;25.30;50.10
13928;DHT22;7036;50.834;4.718;2023-07-02T15:00:53;25.30;50.10
13928;DHT22;7036;50.834;4.718;2023-07-02T15:03:20;25.30;50.00
13928;DHT22;7036;50.834;4.718;2023-07-02T15:05:46;25.30;50.00
13928;DHT22;7036;50.834;4.718;2023-07-02T15:08:13;25.30;49.90
13928;DHT22;7036;50.834;4.718;2023-07-02T15:10:40;25.40;50.00
13928;DHT22;7036;50.834;4.718;2023-07-02T15:13:08;25.40;50.00
13928;DHT22;7036;50.834;4.718;2023-07-02T15:15:36;25.30;49.90
13928;DHT22;7036;50.834;4.718;2023-07-02T15:18:02;25.40;50.00
13928;DHT22;7036;50.834;4.718;2023-07-02T15:20:28;25.40;50.10
13928;DHT22;7036;50.834;4.718;2023-07-02T15:22:55;25.40;50.00
13928;DHT22;7036;50.834;4.718;2023-07-02T15:25:22;25.30;49.90
13928;DHT22;7036;50.834;4.718;2023-07-02T15:27:49;25.40;49.90
13928;DHT22;7036;50.834;4.718;2023-07-02T15:30:16;25.40;49.90
13928;DHT22;7036;50.834;4.718;2023-07-02T15:32:43;25.40;50.00
13928;DHT22;7036;50.834;4.718;2023-07-02T15:35:10;25.40;49.80
13928;DHT22;7036;50.834;4.718;2023-07-02T15:37:37;25.30;49.80
13928;DHT22;7036;50.834;4.718;2023-07-02T15:40:04;25.40;49.80
13928;DHT22;7036;50.834;4.718;2023-07-02T15:42:31;25.30;49.80
13928;DHT22;7036;50.834;4.718;2023-07-02T15:44:59;25.40;49.80